Time;durP1;ratioP1;P1;durP2;ratioP2;P2;SDS_P1;SDS_P2;PMS_P1;PMS_P2;Temp;Humidity;BMP_temperature;BMP_pressure;BME280_temperature;BME280_humidity;BME280_pressure;Samples;Min_cycle;Max_cycle;Signal;HPM_P1;HPM_P2
2023/01/25 00:02:09;;;;;;;11.67;7.07;;;0.80;99.90;;;;;;5012383;28;20210;-82
2023/01/25 00:04:35;;;;;;;12.03;7.37;;;0.80;99.90;;;;;;5012776;28;20175;-82
2023/01/25 00:07:00;;;;;;;11.17;6.83;;;0.80;99.90;;;;;;5012464;28;20227;-82
2023/01/25 00:09:26;;;;;;;11.20;7.10;;;0.90;99.90;;;;;;5012509;28;20206;-82
2023/01/25 00:11:55;;;;;;;10.90;6.83;;;0.90;99.90;;;;;;5013175;28;20270;-82
2023/01/25 00:14:20;;;;;;;11.73;7.40;;;0.90;99.90;;;;;;5013562;28;20186;-82
2023/01/25 00:16:46;;;;;;;11.87;7.30;;;0.80;99.90;;;;;;5013730;28;20196;-82
2023/01/25 00:19:12;;;;;;;12.73;7.20;;;0.80;99.90;;;;;;5013584;28;20174;-82
2023/01/25 00:21:38;;;;;;;11.03;6.73;;;0.70;99.90;;;;;;5012179;28;20202;-82
2023/01/25 00:24:04;;;;;;;11.53;6.93;;;0.80;99.90;;;;;;5012100;28;20182;-82
2023/01/25 00:26:31;;;;;;;14.60;7.87;;;0.80;99.90;;;;;;5012991;28;20721;-82
2023/01/25 00:28:57;;;;;;;13.87;7.80;;;0.80;99.90;;;;;;5013368;28;20556;-82
2023/01/25 00:31:47;;;;;;;13.23;7.43;;;0.90;99.90;;;;;;5012248;28;20202;-82
2023/01/25 00:34:25;;;;;;;14.37;8.27;;;0.80;99.90;;;;;;5013346;28;20182;-82
2023/01/25 00:36:58;;;;;;;14.43;7.97;;;0.80;99.90;;;;;;5013086;28;20218;-82
2023/01/25 00:39:25;;;;;;;13.60;8.00;;;0.70;99.90;;;;;;5012021;28;20237;-82
2023/01/25 00:41:51;;;;;;;14.13;8.57;;;0.70;99.90;;;;;;5012136;28;20209;-82
2023/01/25 00:44:17;;;;;;;12.63;7.13;;;0.80;99.90;;;;;;5011688;28;20175;-82
2023/01/25 00:46:42;;;;;;;13.37;7.73;;;0.80;99.90;;;;;;5013297;28;20192;-82
2023/01/25 00:49:20;;;;;;;11.77;6.87;;;0.80;99.90;;;;;;5011735;28;20182;-82
2023/01/25 00:51:46;;;;;;;13.00;7.70;;;0.70;99.90;;;;;;5011887;28;20185;-82
2023/01/25 00:54:12;;;;;;;13.37;7.17;;;0.70;99.90;;;;;;5013120;28;20178;-82
2023/01/25 00:56:37;;;;;;;12.17;6.77;;;0.70;99.90;;;;;;5013140;28;20191;-82
2023/01/25 00:59:03;;;;;;;12.13;7.10;;;0.70;99.90;;;;;;5011739;28;20257;-82
2023/01/25 01:01:29;;;;;;;11.73;6.87;;;0.60;99.90;;;;;;5011616;28;20244;-82
2023/01/25 01:03:54;;;;;;;11.37;7.07;;;0.60;99.90;;;;;;5011517;28;20179;-82
2023/01/25 01:06:20;;;;;;;12.40;7.67;;;0.60;99.90;;;;;;5011572;28;20198;-82
2023/01/25 01:08:45;;;;;;;13.00;7.07;;;0.60;99.90;;;;;;5013167;28;20197;-82
2023/01/25 01:11:12;;;;;;;12.53;7.33;;;0.70;99.90;;;;;;5011668;28;20181;-82
2023/01/25 01:13:38;;;;;;;12.40;7.20;;;0.60;99.90;;;;;;5011646;28;20254;-82
2023/01/25 01:16:07;;;;;;;10.57;6.87;;;0.60;99.90;;;;;;5011471;28;20197;-82
2023/01/25 01:18:38;;;;;;;13.10;7.87;;;0.70;99.90;;;;;;5012695;28;20179;-82
2023/01/25 01:21:05;;;;;;;14.10;7.80;;;0.70;99.90;;;;;;5011757;28;20221;-82
2023/01/25 01:23:31;;;;;;;12.20;6.90;;;0.60;99.90;;;;;;5011652;28;20322;-83
2023/01/25 01:26:00;;;;;;;10.97;7.00;;;0.60;99.90;;;;;;5012799;28;20202;-82
2023/01/25 01:28:28;;;;;;;13.40;6.93;;;0.60;99.90;;;;;;5011719;28;20183;-82
2023/01/25 01:30:58;;;;;;;12.87;6.57;;;0.60;99.90;;;;;;5012971;28;20602;-81
2023/01/25 01:33:24;;;;;;;12.23;6.80;;;0.60;99.90;;;;;;5011361;28;20201;-82
2023/01/25 01:35:49;;;;;;;12.10;7.47;;;0.60;99.90;;;;;;5012718;28;20218;-82
2023/01/25 01:38:15;;;;;;;12.13;7.50;;;0.50;99.90;;;;;;5011319;28;20174;-82
2023/01/25 01:40:44;;;;;;;12.23;6.73;;;0.50;99.90;;;;;;5012708;28;20167;-82
2023/01/25 01:43:29;;;;;;;12.70;7.30;;;0.50;99.90;;;;;;5014261;28;20202;-82
2023/01/25 01:45:59;;;;;;;13.27;7.53;;;0.50;99.90;;;;;;5014834;28;20193;-82
2023/01/25 01:48:33;;;;;;;13.40;7.60;;;0.50;99.90;;;;;;5015097;28;20218;-82
2023/01/25 01:51:26;;;;;;;11.27;6.77;;;0.50;99.90;;;;;;4998672;28;20250;-82
2023/01/25 01:54:00;;;;;;;11.70;6.77;;;0.50;99.90;;;;;;5015967;28;20218;-82
2023/01/25 01:56:44;;;;;;;12.20;6.70;;;0.40;99.90;;;;;;5016226;28;20200;-82
2023/01/25 01:59:11;;;;;;;11.50;6.53;;;0.50;99.90;;;;;;4998395;28;20640;-82
2023/01/25 02:01:37;;;;;;;13.17;7.43;;;0.40;99.90;;;;;;5014603;28;20191;-82
2023/01/25 02:04:05;;;;;;;11.27;6.33;;;0.50;99.90;;;;;;5014520;28;20178;-82
2023/01/25 02:06:49;;;;;;;12.07;6.60;;;0.50;99.90;;;;;;5015710;28;20692;-82
2023/01/25 02:09:22;;;;;;;11.10;6.10;;;0.40;99.90;;;;;;5015873;28;20167;-81
2023/01/25 02:11:50;;;;;;;10.73;6.37;;;0.50;99.90;;;;;;5014528;28;20266;-82
2023/01/25 02:14:16;;;;;;;10.37;6.23;;;0.40;99.90;;;;;;5014569;28;20181;-82
2023/01/25 02:16:42;;;;;;;10.47;6.33;;;0.20;99.90;;;;;;5015387;28;20198;-82
2023/01/25 02:19:29;;;;;;;11.90;6.27;;;0.30;99.90;;;;;;5014605;28;20547;-82
2023/01/25 02:21:57;;;;;;;11.90;7.00;;;0.20;99.90;;;;;;5014332;28;20571;-82
2023/01/25 02:24:30;;;;;;;9.70;5.93;;;0.20;99.90;;;;;;5015735;28;20764;-82
2023/01/25 02:26:56;;;;;;;10.67;5.83;;;0.30;99.90;;;;;;5016230;28;20202;-82
2023/01/25 02:29:23;;;;;;;10.30;6.30;;;0.40;99.90;;;;;;5015740;28;20174;-82
2023/01/25 02:31:51;;;;;;;13.50;6.43;;;0.40;99.90;;;;;;5015961;28;20182;-82
2023/01/25 02:34:17;;;;;;;11.83;6.50;;;0.40;99.90;;;;;;5015421;28;20202;-82
2023/01/25 02:36:43;;;;;;;11.17;6.10;;;0.40;99.90;;;;;;5016894;28;20214;-82
2023/01/25 02:39:14;;;;;;;11.27;6.20;;;0.40;99.90;;;;;;5014802;28;20186;-83
2023/01/25 02:41:42;;;;;;;11.40;6.07;;;0.40;99.90;;;;;;5015755;28;20198;-83
2023/01/25 02:44:24;;;;;;;10.37;5.80;;;0.30;99.90;;;;;;5014864;28;20178;-82
2023/01/25 02:46:50;;;;;;;10.70;6.00;;;0.20;99.90;;;;;;5014568;28;20223;-83
2023/01/25 02:49:16;;;;;;;12.40;6.20;;;0.20;99.90;;;;;;5014740;28;20198;-82
2023/01/25 02:51:46;;;;;;;10.60;6.03;;;0.20;99.90;;;;;;5014398;28;20184;-82
2023/01/25 02:54:14;;;;;;;9.33;5.40;;;0.20;99.90;;;;;;5013376;28;20188;-82
2023/01/25 02:56:39;;;;;;;10.10;5.67;;;0.10;99.90;;;;;;5015551;28;20194;-83
2023/01/25 02:59:06;;;;;;;9.60;5.53;;;0.20;99.90;;;;;;5016092;28;20205;-82
2023/01/25 03:01:33;;;;;;;9.73;5.40;;;0.20;99.90;;;;;;5014155;28;20598;-82
2023/01/25 03:03:59;;;;;;;9.80;5.63;;;0.30;99.90;;;;;;5015601;28;20182;-82
2023/01/25 03:06:24;;;;;;;11.00;5.90;;;0.40;99.90;;;;;;5015337;28;20202;-82
2023/01/25 03:08:50;;;;;;;9.87;5.27;;;0.30;99.90;;;;;;5014281;28;20174;-82
2023/01/25 03:11:15;;;;;;;9.37;5.13;;;0.20;99.90;;;;;;5014222;28;20173;-82
2023/01/25 03:13:41;;;;;;;10.87;5.40;;;0.20;99.90;;;;;;5015336;28;20198;-83
2023/01/25 03:16:09;;;;;;;10.33;5.60;;;0.30;99.90;;;;;;5014206;28;20669;-82
2023/01/25 03:18:36;;;;;;;9.70;5.23;;;0.30;99.90;;;;;;5013714;28;20201;-83
2023/01/25 03:21:07;;;;;;;8.23;4.87;;;0.20;99.90;;;;;;5013747;28;20174;-82
2023/01/25 03:23:33;;;;;;;9.93;5.37;;;0.20;99.90;;;;;;5015338;28;20190;-82
2023/01/25 03:26:08;;;;;;;11.07;5.53;;;0.20;99.90;;;;;;5015597;28;20249;-83
2023/01/25 03:28:33;;;;;;;9.90;5.30;;;0.20;99.90;;;;;;5014802;28;20718;-82
2023/01/25 03:30:59;;;;;;;10.60;5.73;;;0.20;99.90;;;;;;5013716;28;20187;-83
2023/01/25 03:33:25;;;;;;;10.00;5.37;;;0.20;99.90;;;;;;5015492;28;20249;-83
2023/01/25 03:35:54;;;;;;;10.23;5.70;;;0.20;99.90;;;;;;5014904;28;20217;-83
2023/01/25 03:38:21;;;;;;;9.17;5.10;;;0.20;99.90;;;;;;5015426;28;20178;-83
2023/01/25 03:40:47;;;;;;;12.07;5.97;;;0.20;99.90;;;;;;5015068;28;20185;-82
2023/01/25 03:43:12;;;;;;;12.07;5.97;;;0.20;99.90;;;;;;5014089;28;20202;-83
2023/01/25 03:45:38;;;;;;;11.67;5.90;;;0.20;99.90;;;;;;5013730;28;20241;-82
2023/01/25 03:48:04;;;;;;;8.50;5.20;;;0.20;99.90;;;;;;5015201;28;20202;-82
2023/01/25 03:50:30;;;;;;;9.17;5.30;;;0.10;99.90;;;;;;5014200;28;20180;-82
2023/01/25 03:53:01;;;;;;;10.07;5.27;;;0.10;99.90;;;;;;5015056;28;20273;-82
2023/01/25 03:55:27;;;;;;;8.67;5.00;;;0.10;99.90;;;;;;5013943;28;20182;-82
2023/01/25 03:57:52;;;;;;;8.90;5.17;;;0.10;99.90;;;;;;5013737;28;20184;-82
2023/01/25 04:00:18;;;;;;;9.93;5.80;;;0.10;99.90;;;;;;5014858;28;20178;-83
2023/01/25 04:02:45;;;;;;;10.23;5.70;;;0.10;99.90;;;;;;5013320;28;20208;-82
2023/01/25 04:05:11;;;;;;;11.03;6.00;;;0.10;99.90;;;;;;5013424;28;20182;-82
2023/01/25 04:07:37;;;;;;;10.47;5.47;;;0.10;99.90;;;;;;5014586;28;20179;-82
2023/01/25 04:10:04;;;;;;;9.30;5.77;;;0.10;99.90;;;;;;5014595;28;20204;-82
2023/01/25 04:12:29;;;;;;;11.17;6.10;;;0.10;99.90;;;;;;5013537;28;20177;-84
2023/01/25 04:14:55;;;;;;;9.57;5.43;;;0.10;99.90;;;;;;5013371;28;20171;-82
2023/01/25 04:17:20;;;;;;;10.03;5.47;;;0.10;99.90;;;;;;5013715;28;20206;-82
2023/01/25 04:19:46;;;;;;;10.13;5.80;;;0.10;99.90;;;;;;5013854;28;20189;-82
2023/01/25 04:22:11;;;;;;;9.47;5.80;;;0.10;99.90;;;;;;5014358;28;20721;-82
2023/01/25 04:24:37;;;;;;;10.13;6.13;;;0.10;99.90;;;;;;5013355;28;20174;-83
2023/01/25 04:27:04;;;;;;;10.90;5.90;;;0.20;99.90;;;;;;5013340;28;20680;-82
2023/01/25 04:29:29;;;;;;;10.23;5.90;;;0.20;99.90;;;;;;5014570;28;20204;-83
2023/01/25 04:31:55;;;;;;;10.77;6.33;;;0.20;99.90;;;;;;5012778;28;20202;-82
2023/01/25 04:34:20;;;;;;;10.20;6.10;;;0.20;99.90;;;;;;5013243;28;20190;-82
2023/01/25 04:36:46;;;;;;;10.53;6.27;;;0.20;99.90;;;;;;5013289;28;20242;-82
2023/01/25 04:39:12;;;;;;;10.63;6.13;;;0.20;99.90;;;;;;5012740;28;20274;-82
2023/01/25 04:41:37;;;;;;;12.17;6.27;;;0.10;99.90;;;;;;5012970;28;20234;-82
2023/01/25 04:44:03;;;;;;;9.60;6.00;;;0.10;99.90;;;;;;5012702;28;20700;-82
2023/01/25 04:46:28;;;;;;;10.83;5.90;;;0.10;99.90;;;;;;5014132;28;20611;-82
2023/01/25 04:48:54;;;;;;;11.80;5.90;;;0.10;99.90;;;;;;5013215;28;20167;-82
2023/01/25 04:51:19;;;;;;;9.60;5.87;;;0.10;99.90;;;;;;5014166;28;20707;-83
2023/01/25 04:53:45;;;;;;;12.57;6.70;;;0.00;99.90;;;;;;5014423;28;20189;-83
2023/01/25 04:56:11;;;;;;;11.20;5.90;;;0.00;99.90;;;;;;5012978;28;20330;-82
2023/01/25 04:58:37;;;;;;;11.43;6.00;;;0.00;99.90;;;;;;5013169;28;20184;-82
2023/01/25 05:01:03;;;;;;;10.70;5.67;;;0.00;99.90;;;;;;5013853;28;20174;-82
2023/01/25 05:03:29;;;;;;;9.07;5.57;;;0.00;99.90;;;;;;5013037;28;20238;-82
2023/01/25 05:05:54;;;;;;;10.50;5.93;;;0.10;99.90;;;;;;5014308;28;20280;-82
2023/01/25 05:08:20;;;;;;;9.27;5.93;;;0.10;99.90;;;;;;5013899;28;20181;-82
2023/01/25 05:10:46;;;;;;;10.03;6.07;;;0.20;99.90;;;;;;5013780;28;20178;-82
2023/01/25 05:13:11;;;;;;;10.60;5.87;;;0.30;99.90;;;;;;5012750;28;20175;-82
2023/01/25 05:15:37;;;;;;;9.83;5.90;;;0.30;99.90;;;;;;5014010;28;20202;-83
2023/01/25 05:18:03;;;;;;;10.13;5.93;;;0.30;99.90;;;;;;5015546;28;20187;-82
2023/01/25 05:20:28;;;;;;;11.70;6.10;;;0.30;99.90;;;;;;5017712;28;20181;-83
2023/01/25 05:22:54;;;;;;;9.73;5.83;;;0.20;99.90;;;;;;5017142;28;20221;-82
2023/01/25 05:28:06;;;;;;;9.90;5.67;;;0.20;99.90;;;;;;5018192;28;20185;-82
2023/01/25 05:30:32;;;;;;;10.60;6.23;;;0.30;99.90;;;;;;5017680;28;20182;-82
2023/01/25 05:32:58;;;;;;;9.90;5.70;;;0.30;99.90;;;;;;5016669;28;20178;-82
2023/01/25 05:35:24;;;;;;;10.50;5.67;;;0.20;99.90;;;;;;5016387;28;20175;-82
2023/01/25 05:37:49;;;;;;;10.47;6.00;;;0.20;99.90;;;;;;5016758;28;20260;-82
2023/01/25 05:40:15;;;;;;;11.73;6.23;;;0.20;99.90;;;;;;5016789;28;20183;-83
2023/01/25 05:42:41;;;;;;;9.77;6.07;;;0.10;99.90;;;;;;5016528;28;20203;-83
2023/01/25 05:45:08;;;;;;;10.97;6.03;;;0.20;99.90;;;;;;5016263;28;20183;-82
2023/01/25 05:47:33;;;;;;;10.67;6.03;;;0.20;99.90;;;;;;5016058;28;20262;-82
2023/01/25 05:49:59;;;;;;;10.43;6.20;;;0.30;99.90;;;;;;5018118;28;20207;-82
2023/01/25 05:52:24;;;;;;;12.33;5.97;;;0.20;99.90;;;;;;5016306;28;20178;-82
2023/01/25 05:54:50;;;;;;;11.53;6.17;;;0.20;99.90;;;;;;5017188;28;20240;-82
2023/01/25 05:57:15;;;;;;;10.87;6.03;;;0.30;99.90;;;;;;5017371;28;20195;-82
2023/01/25 05:59:41;;;;;;;11.10;6.37;;;0.30;99.90;;;;;;5017547;28;20182;-82
2023/01/25 06:02:07;;;;;;;12.53;6.30;;;0.20;99.90;;;;;;5017361;28;20626;-82
2023/01/25 06:04:32;;;;;;;13.30;7.27;;;0.20;99.90;;;;;;5017465;28;20167;-82
2023/01/25 06:06:58;;;;;;;13.13;7.00;;;0.20;99.90;;;;;;5016279;28;20198;-82
2023/01/25 06:09:25;;;;;;;13.20;7.10;;;0.20;99.90;;;;;;5015811;28;20182;-85
2023/01/25 06:11:51;;;;;;;12.30;6.77;;;0.00;99.90;;;;;;5013864;28;20194;-85
2023/01/25 06:14:16;;;;;;;13.70;6.97;;;0.10;99.90;;;;;;5013945;28;20590;-85
2023/01/25 06:16:42;;;;;;;11.33;5.97;;;0.10;99.90;;;;;;5015338;28;20225;-85
2023/01/25 06:19:08;;;;;;;12.17;6.80;;;0.10;99.90;;;;;;5014163;28;20214;-85
2023/01/25 06:21:35;;;;;;;12.90;7.60;;;0.10;99.90;;;;;;5013626;28;20227;-85
2023/01/25 06:24:04;;;;;;;11.83;6.80;;;0.10;99.90;;;;;;5015066;28;20179;-85
2023/01/25 06:26:30;;;;;;;10.60;5.83;;;0.10;99.90;;;;;;5014904;28;20214;-85
2023/01/25 06:28:55;;;;;;;10.97;6.57;;;0.10;99.90;;;;;;5014541;28;20225;-85
2023/01/25 06:31:21;;;;;;;12.03;6.57;;;0.10;99.90;;;;;;5013788;28;20182;-85
2023/01/25 06:33:48;;;;;;;11.83;6.20;;;0.10;99.90;;;;;;5015018;28;20178;-85
2023/01/25 06:36:17;;;;;;;12.53;6.90;;;0.10;99.90;;;;;;5014784;28;20207;-84
2023/01/25 06:38:43;;;;;;;11.47;6.53;;;0.10;99.90;;;;;;5013562;28;20215;-84
2023/01/25 06:41:11;;;;;;;12.87;6.43;;;0.10;99.90;;;;;;5013338;28;20612;-85
2023/01/25 06:43:37;;;;;;;12.27;6.97;;;0.10;99.90;;;;;;5014889;28;20207;-83
2023/01/25 06:46:05;;;;;;;10.20;5.63;;;0.10;99.90;;;;;;5013204;28;20205;-83
2023/01/25 06:48:31;;;;;;;10.33;5.90;;;0.60;99.90;;;;;;5013995;28;20177;-82
2023/01/25 06:50:59;;;;;;;11.80;6.63;;;1.40;99.90;;;;;;5013848;28;20175;-83
2023/01/25 06:53:27;;;;;;;11.03;5.87;;;1.70;99.90;;;;;;5014383;28;20179;-82
2023/01/25 06:56:00;;;;;;;13.47;6.93;;;1.80;99.90;;;;;;5014304;28;20219;-83
2023/01/25 06:58:27;;;;;;;12.43;6.73;;;2.00;99.90;;;;;;5013485;28;20175;-83
2023/01/25 07:00:53;;;;;;;13.23;6.80;;;2.00;99.90;;;;;;5013486;28;20175;-85
2023/01/25 07:03:19;;;;;;;10.83;6.40;;;1.50;99.90;;;;;;5014577;28;20191;-86
2023/01/25 07:05:45;;;;;;;10.63;6.80;;;1.10;99.90;;;;;;5016588;28;20191;-83
2023/01/25 07:08:11;;;;;;;11.70;6.73;;;0.80;99.90;;;;;;5015812;28;20171;-85
2023/01/25 07:10:36;;;;;;;10.47;5.93;;;0.60;99.90;;;;;;5013198;28;20201;-85
2023/01/25 07:13:02;;;;;;;12.77;6.87;;;0.30;99.90;;;;;;5013198;28;20554;-82
2023/01/25 07:15:27;;;;;;;12.83;7.33;;;0.10;99.90;;;;;;5014800;28;20672;-82
2023/01/25 07:17:53;;;;;;;11.77;6.37;;;0.00;99.90;;;;;;5013253;28;20167;-84
2023/01/25 07:20:18;;;;;;;12.50;6.67;;;0.00;99.90;;;;;;5012997;28;20175;-82
2023/01/25 07:22:44;;;;;;;15.00;7.50;;;0.10;99.90;;;;;;5014338;28;20195;-83
2023/01/25 07:25:09;;;;;;;38.90;17.07;;;0.00;99.90;;;;;;5014045;28;20163;-83
2023/01/25 07:27:35;;;;;;;17.60;9.50;;;0.00;99.90;;;;;;5014178;28;20195;-83
2023/01/25 07:30:01;;;;;;;13.80;7.40;;;0.00;99.90;;;;;;5014173;28;20178;-83
2023/01/25 07:32:27;;;;;;;13.47;6.93;;;0.10;99.90;;;;;;5022806;28;20210;-83
2023/01/25 07:34:53;;;;;;;13.57;6.97;;;0.10;99.90;;;;;;5013796;28;20190;-82
2023/01/25 07:37:19;;;;;;;12.17;6.93;;;0.10;99.90;;;;;;5013740;28;20214;-82
2023/01/25 07:39:48;;;;;;;11.93;6.70;;;0.00;99.90;;;;;;5018697;28;20231;-83
2023/01/25 07:42:14;;;;;;;12.47;6.93;;;0.00;99.90;;;;;;5011607;28;20195;-82
2023/01/25 07:44:40;;;;;;;12.00;7.13;;;0.00;99.90;;;;;;5011607;28;20179;-82
2023/01/25 07:47:06;;;;;;;13.97;6.80;;;0.00;99.90;;;;;;5012957;28;20197;-83
2023/01/25 07:49:31;;;;;;;13.63;7.53;;;-0.10;99.90;;;;;;5013395;28;20219;-82
2023/01/25 07:51:57;;;;;;;13.10;6.97;;;-0.10;99.90;;;;;;5011653;28;20180;-82
2023/01/25 07:54:22;;;;;;;11.67;6.60;;;-0.10;99.90;;;;;;5013992;28;20190;-83
2023/01/25 07:56:48;;;;;;;14.47;7.07;;;-0.10;99.90;;;;;;5013693;28;20254;-82
2023/01/25 07:59:14;;;;;;;13.33;7.17;;;-0.10;99.90;;;;;;5013692;28;20179;-83
2023/01/25 08:01:40;;;;;;;12.03;6.77;;;-0.10;99.90;;;;;;5013623;28;20218;-84
2023/01/25 08:04:06;;;;;;;13.00;6.87;;;-0.10;99.90;;;;;;5013727;28;20182;-84
2023/01/25 08:06:34;;;;;;;13.33;6.83;;;-0.10;99.90;;;;;;5019368;28;20206;-84
2023/01/25 08:09:12;;;;;;;11.63;6.23;;;-0.10;99.90;;;;;;4996216;28;20190;-84
2023/01/25 08:11:38;;;;;;;15.10;7.50;;;-0.10;99.90;;;;;;5013673;28;20616;-84
2023/01/25 08:14:04;;;;;;;15.73;9.13;;;0.00;99.90;;;;;;4996087;28;20182;-84
2023/01/25 08:16:31;;;;;;;12.47;6.43;;;0.10;99.90;;;;;;5013607;28;20279;-84
2023/01/25 08:18:59;;;;;;;11.37;5.73;;;0.10;99.90;;;;;;5013196;28;20179;-84
2023/01/25 08:21:28;;;;;;;11.33;6.03;;;0.00;99.90;;;;;;5011870;28;20181;-84
2023/01/25 08:23:58;;;;;;;12.83;6.13;;;0.00;99.90;;;;;;5013529;28;20175;-82
2023/01/25 08:26:24;;;;;;;10.67;5.93;;;0.00;99.90;;;;;;5014368;28;20194;-82
2023/01/25 08:28:52;;;;;;;11.20;6.40;;;0.00;99.90;;;;;;5012366;28;20171;-82
2023/01/25 08:31:21;;;;;;;12.50;6.40;;;0.10;99.90;;;;;;5013619;28;20202;-82
2023/01/25 08:33:47;;;;;;;13.37;6.90;;;0.10;99.90;;;;;;5013602;28;20250;-83
2023/01/25 08:36:14;;;;;;;11.67;6.80;;;0.00;99.90;;;;;;5033609;22;20252;-77
2023/01/25 08:38:41;;;;;;;13.23;7.03;;;0.00;99.90;;;;;;5047622;28;20209;-79
2023/01/25 08:41:07;;;;;;;11.93;6.50;;;0.00;99.90;;;;;;5055164;28;20197;-80
2023/01/25 08:43:34;;;;;;;13.53;6.73;;;0.00;99.90;;;;;;5038833;28;20726;-79
2023/01/25 08:45:59;;;;;;;12.13;6.07;;;0.00;99.90;;;;;;5056575;28;20189;-79
2023/01/25 08:48:25;;;;;;;10.50;6.33;;;0.00;99.90;;;;;;5051297;28;20189;-79
2023/01/25 08:50:51;;;;;;;10.07;5.73;;;0.00;99.90;;;;;;5041476;28;20187;-81
2023/01/25 08:53:16;;;;;;;11.23;5.70;;;-0.30;99.90;;;;;;5045221;28;20590;-79
2023/01/25 08:55:42;;;;;;;12.30;6.10;;;-0.40;99.90;;;;;;5040090;28;20178;-79
2023/01/25 08:58:10;;;;;;;12.30;6.03;;;-0.50;99.90;;;;;;5038177;28;20230;-79
2023/01/25 09:00:37;;;;;;;11.20;5.60;;;-0.50;99.90;;;;;;5056249;28;20171;-79
2023/01/25 09:03:03;;;;;;;9.40;5.40;;;-0.40;99.90;;;;;;5038254;28;20201;-79
2023/01/25 09:05:29;;;;;;;11.37;5.47;;;-0.50;99.90;;;;;;5056194;28;20228;-79
2023/01/25 09:07:54;;;;;;;12.17;5.90;;;-0.60;99.90;;;;;;5034263;28;20214;-80
2023/01/25 09:10:20;;;;;;;11.03;5.40;;;-0.60;99.90;;;;;;5037090;28;20182;-80
2023/01/25 09:12:45;;;;;;;8.03;4.73;;;-0.40;99.90;;;;;;5037128;28;20189;-80
2023/01/25 09:15:11;;;;;;;8.17;4.63;;;-0.30;99.90;;;;;;5035624;28;20184;-83
2023/01/25 09:17:37;;;;;;;11.33;5.70;;;-0.30;99.90;;;;;;5035073;28;20591;-85
2023/01/25 09:20:05;;;;;;;10.63;5.80;;;-0.40;99.90;;;;;;5034487;28;20184;-81
2023/01/25 09:22:31;;;;;;;10.27;5.67;;;-0.50;99.90;;;;;;5052863;28;20212;-81
2023/01/25 09:24:57;;;;;;;12.90;5.47;;;-0.60;99.90;;;;;;5052848;28;20635;-82
2023/01/25 09:27:22;;;;;;;9.70;5.23;;;-0.50;99.90;;;;;;5052437;28;20238;-82
2023/01/25 09:29:48;;;;;;;11.13;5.90;;;-0.40;99.90;;;;;;5034449;28;20177;-82
2023/01/25 09:32:13;;;;;;;10.23;5.20;;;-0.30;99.90;;;;;;5052670;28;20181;-80
2023/01/25 09:34:39;;;;;;;9.33;5.30;;;-0.30;99.90;;;;;;5052532;28;20263;-81
2023/01/25 09:37:04;;;;;;;11.40;5.23;;;-0.30;99.90;;;;;;5052564;28;20714;-80
2023/01/25 09:39:30;;;;;;;10.93;6.13;;;-0.30;99.90;;;;;;5034486;28;20184;-81
2023/01/25 09:42:12;;;;;;;9.20;5.03;;;-0.30;99.90;;;;;;5052339;28;20261;-81
2023/01/25 09:45:03;;;;;;;11.13;6.47;;;-0.40;99.90;;;;;;5050112;28;20193;-80
2023/01/25 09:47:50;;;;;;;15.27;7.77;;;-0.50;99.90;;;;;;5036839;28;20208;-82
2023/01/25 09:50:24;;;;;;;13.87;8.37;;;-0.50;99.90;;;;;;5035292;28;20176;-81
2023/01/25 09:53:17;;;;;;;12.33;6.67;;;-0.50;99.90;;;;;;5032147;28;20698;-80
2023/01/25 09:55:49;;;;;;;11.93;6.17;;;-0.50;99.90;;;;;;5039180;28;20177;-82
2023/01/25 09:58:20;;;;;;;9.17;5.10;;;-0.50;99.90;;;;;;5034066;28;20180;-81
2023/01/25 10:00:51;;;;;;;8.70;5.20;;;-0.40;99.90;;;;;;5051607;28;20169;-82
2023/01/25 10:03:31;;;;;;;9.73;4.80;;;-0.30;99.90;;;;;;4994843;28;20210;-82
2023/01/25 10:05:59;;;;;;;11.20;5.67;;;-0.20;99.90;;;;;;4998727;28;20209;-79
2023/01/25 10:08:46;;;;;;;10.90;5.87;;;-0.30;99.90;;;;;;4998122;28;20228;-81
2023/01/25 10:11:24;;;;;;;10.67;5.77;;;-0.30;99.90;;;;;;5015575;28;20190;-83
2023/01/25 10:13:50;;;;;;;11.47;5.37;;;-0.40;99.90;;;;;;4997850;28;20184;-85
2023/01/25 10:16:24;;;;;;;9.10;4.97;;;-0.30;99.90;;;;;;5015531;28;20205;-82
2023/01/25 10:19:09;;;;;;;9.57;4.93;;;-0.20;99.90;;;;;;5015316;28;20177;-83
2023/01/25 10:21:41;;;;;;;10.13;4.90;;;-0.10;99.90;;;;;;4997680;28;20271;-85
2023/01/25 10:24:38;;;;;;;9.13;4.90;;;0.00;99.90;;;;;;4997833;28;20180;-85
2023/01/25 10:27:28;;;;;;;8.37;4.70;;;0.10;99.90;;;;;;5012622;28;20200;-80
2023/01/25 10:29:57;;;;;;;8.70;5.30;;;0.10;99.90;;;;;;5026743;28;20177;-81
2023/01/25 10:32:31;;;;;;;10.57;4.93;;;0.10;99.90;;;;;;5037961;28;20183;-83
2023/01/25 10:35:14;;;;;;;9.03;5.20;;;0.00;99.90;;;;;;5038181;28;20185;-81
2023/01/25 10:37:40;;;;;;;8.80;4.90;;;-0.20;99.90;;;;;;5037249;28;20220;-82
2023/01/25 10:40:17;;;;;;;10.47;5.13;;;-0.20;99.90;;;;;;5036819;28;20271;-82
2023/01/25 10:43:11;;;;;;;10.07;5.57;;;-0.20;99.90;;;;;;5036920;28;20200;-82
2023/01/25 10:45:37;;;;;;;10.43;5.20;;;-0.10;99.90;;;;;;5036866;28;20184;-81
2023/01/25 10:48:08;;;;;;;11.17;5.93;;;-0.20;99.90;;;;;;5054748;28;20177;-81
2023/01/25 10:50:45;;;;;;;11.20;5.57;;;0.00;99.90;;;;;;5036727;28;20172;-85
2023/01/25 10:53:20;;;;;;;9.23;5.30;;;0.10;99.90;;;;;;5036618;28;20208;-82
2023/01/25 10:55:59;;;;;;;11.67;5.87;;;0.10;99.90;;;;;;5036991;28;20196;-84
2023/01/25 10:58:39;;;;;;;10.70;6.03;;;0.10;99.90;;;;;;5054781;28;20207;-82
2023/01/25 11:01:11;;;;;;;9.93;5.50;;;0.10;99.90;;;;;;5054521;28;20180;-81
2023/01/25 11:03:43;;;;;;;9.83;5.30;;;0.20;99.90;;;;;;5036586;28;20292;-81
2023/01/25 11:06:09;;;;;;;10.03;5.67;;;0.10;99.90;;;;;;5037122;28;20218;-82
2023/01/25 11:08:39;;;;;;;8.77;5.13;;;0.10;99.90;;;;;;5037102;28;20170;-82
2023/01/25 11:11:24;;;;;;;8.50;5.17;;;0.30;99.90;;;;;;5054501;28;20180;-82
2023/01/25 11:13:51;;;;;;;10.80;5.77;;;0.30;99.90;;;;;;5053219;28;20176;-84
2023/01/25 11:16:31;;;;;;;12.27;7.10;;;0.40;99.90;;;;;;5035600;28;20197;-82
2023/01/25 11:18:57;;;;;;;9.43;6.00;;;0.40;99.90;;;;;;5037975;28;20711;-81
2023/01/25 11:21:25;;;;;;;24.77;14.70;;;0.40;99.90;;;;;;5036495;28;20178;-81
2023/01/25 11:24:07;;;;;;;10.77;5.90;;;0.50;99.90;;;;;;5036020;28;20208;-83
2023/01/25 11:26:35;;;;;;;11.20;6.23;;;0.60;99.90;;;;;;5053924;28;20202;-82
2023/01/25 11:29:16;;;;;;;11.60;5.93;;;0.50;99.90;;;;;;5053854;28;20169;-82
2023/01/25 11:31:52;;;;;;;11.47;6.57;;;0.60;99.90;;;;;;5053544;28;20177;-84
2023/01/25 11:34:26;;;;;;;11.47;6.87;;;0.50;99.90;;;;;;5053642;28;20169;-82
2023/01/25 11:37:26;;;;;;;9.47;5.90;;;0.60;99.90;;;;;;5035746;28;20201;-81
2023/01/25 11:40:18;;;;;;;12.50;7.00;;;0.50;99.90;;;;;;5035904;28;20180;-84
2023/01/25 11:43:01;;;;;;;12.33;6.30;;;0.40;99.90;;;;;;5053953;28;20196;-83
2023/01/25 11:45:36;;;;;;;8.57;5.07;;;0.60;99.90;;;;;;5035955;28;20177;-81
2023/01/25 11:48:34;;;;;;;10.70;5.67;;;0.60;99.90;;;;;;5053894;28;20168;-81
2023/01/25 11:51:09;;;;;;;10.20;5.43;;;0.60;99.90;;;;;;5002962;28;20211;-81
2023/01/25 11:53:51;;;;;;;10.23;5.90;;;0.70;99.90;;;;;;5053610;28;20177;-81
2023/01/25 11:56:28;;;;;;;10.13;5.70;;;0.90;99.90;;;;;;5035850;28;20189;-82
2023/01/25 11:59:32;;;;;;;9.43;5.27;;;0.80;99.90;;;;;;5035421;28;20276;-84
2023/01/25 12:02:25;;;;;;;8.70;5.03;;;0.70;99.90;;;;;;5035297;28;20193;-82
2023/01/25 12:05:10;;;;;;;8.43;5.30;;;0.70;99.90;;;;;;5035236;28;20176;-82
2023/01/25 12:08:10;;;;;;;8.73;5.30;;;0.70;99.90;;;;;;5052989;28;20185;-82
2023/01/25 12:10:54;;;;;;;10.67;6.60;;;0.70;99.90;;;;;;5035100;28;20174;-82
2023/01/25 12:13:35;;;;;;;9.30;5.07;;;0.60;99.90;;;;;;5052931;28;20181;-82
2023/01/25 12:16:17;;;;;;;10.23;5.77;;;0.50;99.90;;;;;;5053498;28;20261;-81
2023/01/25 12:19:10;;;;;;;8.83;5.23;;;0.50;99.90;;;;;;5035181;28;20212;-82
2023/01/25 12:21:51;;;;;;;10.83;5.70;;;0.60;99.90;;;;;;5043306;28;20268;-81
2023/01/25 12:24:32;;;;;;;8.27;4.97;;;0.50;99.90;;;;;;5033127;28;20167;-81
2023/01/25 12:27:03;;;;;;;9.70;5.23;;;0.50;99.90;;;;;;5015010;28;20197;-81
2023/01/25 12:29:33;;;;;;;11.43;6.50;;;0.50;99.90;;;;;;5015476;28;20281;-81
2023/01/25 12:32:07;;;;;;;11.87;6.33;;;0.40;99.90;;;;;;5032513;28;20706;-82
2023/01/25 12:34:37;;;;;;;11.23;5.83;;;0.30;99.90;;;;;;5014986;28;20177;-81
2023/01/25 12:37:22;;;;;;;16.10;7.67;;;0.20;99.90;;;;;;5014821;28;20237;-82
2023/01/25 12:39:58;;;;;;;11.53;5.97;;;0.20;99.90;;;;;;5032430;28;20185;-82
2023/01/25 12:42:35;;;;;;;12.70;6.73;;;0.30;99.90;;;;;;5032288;28;20205;-84
2023/01/25 12:45:14;;;;;;;10.57;5.80;;;0.20;99.90;;;;;;5014777;28;20184;-82
2023/01/25 12:47:57;;;;;;;11.33;6.17;;;0.20;99.90;;;;;;5014556;28;20250;-82
2023/01/25 12:50:29;;;;;;;11.83;6.30;;;0.10;99.90;;;;;;5015433;28;20173;-83
2023/01/25 12:53:03;;;;;;;11.13;6.27;;;0.20;99.90;;;;;;5033335;28;20197;-82
2023/01/25 12:55:29;;;;;;;15.10;7.93;;;0.30;99.90;;;;;;5032549;28;20186;-82
2023/01/25 12:58:18;;;;;;;12.30;6.80;;;0.40;99.90;;;;;;5014690;28;20676;-82
2023/01/25 13:00:51;;;;;;;11.50;6.33;;;0.50;99.90;;;;;;5004176;28;20193;-82
2023/01/25 13:03:39;;;;;;;14.40;7.90;;;0.50;99.90;;;;;;5032074;28;20193;-83
2023/01/25 13:06:45;;;;;;;10.70;5.57;;;0.60;99.90;;;;;;5032325;28;20337;-83